createdAt,value
2023-11-08T00:02:03.965Z,52.96
2023-11-08T00:04:32.275Z,53.18
2023-11-08T00:06:59.262Z,52.98
2023-11-08T00:09:26.439Z,53.08
2023-11-08T00:11:53.209Z,53.21
2023-11-08T00:14:20.553Z,53.18
2023-11-08T00:16:47.363Z,53.23
2023-11-08T00:19:17.546Z,53.33
2023-11-08T00:21:44.584Z,53.35
2023-11-08T00:24:11.813Z,53.30
2023-11-08T00:26:38.629Z,53.18
2023-11-08T00:29:05.775Z,53.45
2023-11-08T00:31:33.409Z,53.53
2023-11-08T00:34:00.509Z,53.45
2023-11-08T00:36:27.356Z,53.62
2023-11-08T00:38:54.947Z,53.61
2023-11-08T00:41:21.735Z,53.60
2023-11-08T00:43:49.059Z,53.60
2023-11-08T00:46:15.878Z,53.69
2023-11-08T00:48:43.206Z,53.52
2023-11-08T00:51:10.549Z,53.64
2023-11-08T00:53:37.724Z,53.53
2023-11-08T00:56:04.866Z,53.62
2023-11-08T00:58:32.031Z,53.73
2023-11-08T01:00:58.832Z,53.65
2023-11-08T01:03:26.066Z,53.63
2023-11-08T01:05:53.031Z,53.57
2023-11-08T01:08:20.148Z,53.65
2023-11-08T01:10:47.890Z,53.52
2023-11-08T01:13:15.055Z,53.72
2023-11-08T01:15:41.874Z,53.55
2023-11-08T01:18:09.599Z,53.88
2023-11-08T01:20:36.675Z,53.93
2023-11-08T01:23:04.186Z,53.84
2023-11-08T01:25:31.081Z,53.96
2023-11-08T01:27:58.155Z,53.63
2023-11-08T01:30:25.021Z,53.59
2023-11-08T01:32:52.343Z,53.97
2023-11-08T01:35:22.106Z,53.81
2023-11-08T01:37:49.346Z,53.93
2023-11-08T01:40:16.197Z,53.94
2023-11-08T01:42:43.924Z,54.09
2023-11-08T01:45:10.887Z,54.17
2023-11-08T01:47:38.253Z,53.90
2023-11-08T01:50:05.754Z,53.90
2023-11-08T01:52:33.038Z,53.50
2023-11-08T01:54:59.817Z,53.93
2023-11-08T01:57:29.880Z,53.88
2023-11-08T01:59:59.075Z,53.76
2023-11-08T02:02:26.276Z,54.11
2023-11-08T02:04:56.070Z,54.22
2023-11-08T02:07:23.366Z,54.30
2023-11-08T02:09:50.614Z,53.97
2023-11-08T02:12:17.908Z,54.14
2023-11-08T02:15:03.939Z,54.09
2023-11-08T02:17:31.219Z,54.12
2023-11-08T02:19:58.000Z,54.03
2023-11-08T02:22:25.149Z,54.26
2023-11-08T02:24:52.197Z,53.98
2023-11-08T02:27:19.383Z,53.83
2023-11-08T02:29:46.175Z,54.17
2023-11-08T02:32:13.609Z,54.18
2023-11-08T02:34:40.546Z,54.23
2023-11-08T02:37:08.892Z,54.40
2023-11-08T02:39:35.657Z,54.38
2023-11-08T02:42:02.781Z,54.20
2023-11-08T02:44:29.553Z,54.20
2023-11-08T02:46:56.616Z,54.44
2023-11-08T02:49:25.481Z,54.35
2023-11-08T02:51:52.843Z,54.11
2023-11-08T02:54:20.210Z,54.80
2023-11-08T02:56:47.587Z,54.10
2023-11-08T02:59:14.387Z,54.62
2023-11-08T03:01:41.516Z,54.53
2023-11-08T03:04:08.556Z,54.31
2023-11-08T03:06:36.011Z,54.59
2023-11-08T03:09:03.793Z,54.58
2023-11-08T03:11:30.921Z,54.67
2023-11-08T03:13:59.280Z,54.50
2023-11-08T03:16:26.343Z,54.70
2023-11-08T03:18:53.563Z,54.80
2023-11-08T03:21:20.704Z,54.68
2023-11-08T03:23:47.545Z,55.01
2023-11-08T03:26:16.675Z,54.78
2023-11-08T03:28:45.122Z,54.63
2023-11-08T03:31:13.503Z,54.72
2023-11-08T03:33:40.400Z,54.69
2023-11-08T03:36:07.511Z,54.70
2023-11-08T03:38:34.296Z,54.71
2023-11-08T03:41:02.307Z,54.75
2023-11-08T03:43:29.122Z,54.76
2023-11-08T03:45:56.238Z,54.60
2023-11-08T03:48:23.120Z,54.74
2023-11-08T03:50:50.208Z,54.65
2023-11-08T03:53:16.943Z,54.60
2023-11-08T03:55:44.104Z,54.57
2023-11-08T03:58:11.020Z,54.69
2023-11-08T04:00:38.174Z,54.83
2023-11-08T04:03:05.031Z,54.87
2023-11-08T04:05:32.220Z,54.74
2023-11-08T04:07:59.101Z,54.49
2023-11-08T04:10:26.204Z,54.64
2023-11-08T04:12:53.078Z,54.78
2023-11-08T04:15:20.425Z,54.72
2023-11-08T04:17:47.221Z,54.91
2023-11-08T04:20:14.450Z,54.73
2023-11-08T04:22:42.729Z,54.68
2023-11-08T04:25:11.714Z,54.70
2023-11-08T04:27:39.075Z,54.72
2023-11-08T04:30:06.767Z,54.73
2023-11-08T04:32:33.613Z,54.87
2023-11-08T04:35:00.715Z,54.83
2023-11-08T04:37:27.535Z,54.71
2023-11-08T04:39:54.621Z,54.74
2023-11-08T04:42:21.418Z,54.58
2023-11-08T04:44:48.885Z,54.83
2023-11-08T04:47:26.238Z,54.68
2023-11-08T04:49:54.837Z,54.83
2023-11-08T04:52:21.903Z,54.81
2023-11-08T04:54:54.605Z,54.68
2023-11-08T04:57:22.119Z,54.79
2023-11-08T04:59:50.136Z,54.82
2023-11-08T05:02:18.135Z,54.72
2023-11-08T05:04:48.757Z,54.76
2023-11-08T05:07:16.606Z,54.93
2023-11-08T05:09:44.506Z,54.75
2023-11-08T05:12:13.188Z,54.81
2023-11-08T05:14:40.391Z,54.86
2023-11-08T05:17:07.237Z,54.80
2023-11-08T05:19:34.455Z,54.82
2023-11-08T05:22:01.310Z,54.84
2023-11-08T05:24:29.268Z,54.85
2023-11-08T05:26:56.165Z,54.91
2023-11-08T05:29:23.436Z,54.90
2023-11-08T05:31:53.727Z,55.03
2023-11-08T05:34:21.678Z,54.76
2023-11-08T05:36:48.769Z,54.88
2023-11-08T05:39:25.928Z,54.93
2023-11-08T05:41:53.598Z,54.89
2023-11-08T05:44:21.131Z,54.95
2023-11-08T05:46:50.090Z,54.80
2023-11-08T05:49:17.690Z,54.98
2023-11-08T05:51:44.484Z,54.91
2023-11-08T05:54:11.593Z,54.50
2023-11-08T05:56:38.404Z,55.02
2023-11-08T05:59:06.443Z,54.94
2023-11-08T06:01:33.206Z,55.00
2023-11-08T06:04:01.154Z,55.16
2023-11-08T06:06:28.825Z,55.04
2023-11-08T06:08:56.100Z,55.07
2023-11-08T06:11:22.999Z,54.84
2023-11-08T06:13:50.103Z,55.23
2023-11-08T06:16:17.304Z,54.92
2023-11-08T06:18:44.689Z,55.00
2023-11-08T06:21:15.237Z,54.97
2023-11-08T06:23:44.935Z,55.03
2023-11-08T06:26:15.690Z,55.18
2023-11-08T06:28:42.851Z,54.96
2023-11-08T06:31:09.792Z,54.90
2023-11-08T06:33:39.439Z,54.99
2023-11-08T06:36:06.713Z,55.06
2023-11-08T06:38:34.004Z,55.11
2023-11-08T06:41:00.809Z,55.10
2023-11-08T06:43:27.943Z,55.05
2023-11-08T06:45:54.728Z,55.10
2023-11-08T06:48:22.062Z,55.12
2023-11-08T06:50:48.930Z,55.29
2023-11-08T06:53:18.947Z,55.43
2023-11-08T06:55:47.533Z,55.00
2023-11-08T06:58:14.878Z,55.05
2023-11-08T07:00:42.211Z,55.11
2023-11-08T07:03:10.678Z,55.03
2023-11-08T07:05:39.255Z,54.98
2023-11-08T07:08:07.987Z,54.90
2023-11-08T07:10:34.864Z,54.87
2023-11-08T07:13:01.951Z,54.92
2023-11-08T07:15:29.222Z,55.02
2023-11-08T07:17:56.838Z,55.00
2023-11-08T07:20:24.293Z,54.99
2023-11-08T07:22:51.427Z,54.90
2023-11-08T07:25:18.853Z,55.18
2023-11-08T07:27:46.077Z,55.09
2023-11-08T07:30:15.473Z,55.08
2023-11-08T07:32:42.701Z,55.09
2023-11-08T07:35:10.068Z,54.95
2023-11-08T07:37:40.976Z,55.11
2023-11-08T07:40:13.142Z,55.21
2023-11-08T07:42:41.025Z,55.06
2023-11-08T07:45:08.505Z,55.02
2023-11-08T07:47:35.742Z,55.05
2023-11-08T07:50:05.954Z,55.06
2023-11-08T07:52:33.507Z,54.97
2023-11-08T07:55:00.436Z,55.03
2023-11-08T07:57:27.694Z,55.07
2023-11-08T07:59:55.225Z,54.96
2023-11-08T08:02:22.410Z,54.84
2023-11-08T08:04:50.197Z,54.73
2023-11-08T08:07:17.388Z,54.95
2023-11-08T08:09:44.212Z,54.94
2023-11-08T08:12:13.382Z,54.83
2023-11-08T08:14:40.294Z,54.62
2023-11-08T08:17:07.524Z,55.08
2023-11-08T08:19:34.413Z,54.41
2023-11-08T08:22:03.271Z,54.50
2023-11-08T08:24:30.610Z,54.82
2023-11-08T08:26:58.147Z,54.53
2023-11-08T08:29:27.310Z,54.52
2023-11-08T08:31:54.567Z,54.80
2023-11-08T08:34:28.700Z,54.52
2023-11-08T08:36:58.946Z,54.39
2023-11-08T08:39:29.589Z,54.40
2023-11-08T08:41:57.738Z,54.58
2023-11-08T08:44:25.419Z,54.36
2023-11-08T08:46:53.126Z,54.24
2023-11-08T08:49:22.088Z,54.22
2023-11-08T08:51:51.006Z,54.47
2023-11-08T08:54:19.378Z,54.12
2023-11-08T08:56:50.438Z,54.19
2023-11-08T08:59:17.279Z,54.11
2023-11-08T09:01:44.858Z,54.06
2023-11-08T09:04:12.154Z,54.51
2023-11-08T09:06:40.174Z,54.20
2023-11-08T09:09:13.494Z,54.10
2023-11-08T09:11:43.591Z,54.08
2023-11-08T09:14:10.561Z,53.80
2023-11-08T09:16:39.261Z,53.74
2023-11-08T09:19:08.957Z,53.96
2023-11-08T09:21:36.752Z,53.24
2023-11-08T09:24:07.237Z,54.15
2023-11-08T09:26:34.692Z,53.77
2023-11-08T09:29:01.510Z,54.00
2023-11-08T09:31:28.730Z,53.92
2023-11-08T09:34:00.062Z,54.08
2023-11-08T09:36:28.668Z,53.71
2023-11-08T09:38:58.604Z,53.58
2023-11-08T09:41:26.000Z,53.46
2023-11-08T09:43:53.196Z,53.35
2023-11-08T09:46:20.530Z,53.19
2023-11-08T09:48:50.295Z,52.90
2023-11-08T09:51:17.969Z,52.87
2023-11-08T09:53:45.053Z,52.84
2023-11-08T09:56:12.952Z,53.39
2023-11-08T09:58:45.386Z,53.16
2023-11-08T10:01:16.563Z,52.30
2023-11-08T10:03:47.374Z,52.69
2023-11-08T10:06:15.601Z,52.67
2023-11-08T10:08:42.700Z,52.34
2023-11-08T10:11:11.367Z,52.12
2023-11-08T10:13:46.843Z,52.20
2023-11-08T10:16:17.141Z,52.25
2023-11-08T10:19:35.491Z,52.28
2023-11-08T10:21:32.304Z,52.58
2023-11-08T10:24:19.620Z,52.20
2023-11-08T10:26:47.824Z,52.73
2023-11-08T10:29:14.877Z,52.43
2023-11-08T10:31:42.909Z,52.29
2023-11-08T10:34:13.633Z,51.51
2023-11-08T10:36:40.945Z,52.28
2023-11-08T10:39:09.101Z,51.94
2023-11-08T10:41:36.656Z,52.41
2023-11-08T10:44:10.454Z,52.47
2023-11-08T10:46:38.602Z,52.59
2023-11-08T10:49:08.642Z,52.08
2023-11-08T10:51:39.766Z,51.61
2023-11-08T10:54:07.465Z,51.53
2023-11-08T10:56:35.220Z,51.22
2023-11-08T10:59:04.624Z,51.29
2023-11-08T11:01:32.927Z,51.30
2023-11-08T11:04:07.266Z,52.68
2023-11-08T11:06:35.496Z,52.25
2023-11-08T11:09:11.143Z,51.45
2023-11-08T11:11:43.827Z,50.64
2023-11-08T11:14:34.424Z,49.66
2023-11-08T11:17:20.790Z,50.67
2023-11-08T11:19:47.828Z,50.36
2023-11-08T11:22:17.028Z,50.85
2023-11-08T11:24:44.700Z,50.70
2023-11-08T11:27:35.082Z,50.44
2023-11-08T11:30:27.714Z,50.29
2023-11-08T11:32:55.530Z,50.12
2023-11-08T11:35:31.391Z,50.02
2023-11-08T11:38:07.307Z,49.43
2023-11-08T11:40:38.952Z,49.21
2023-11-08T11:43:31.088Z,49.61
2023-11-08T11:45:59.030Z,49.55
2023-11-08T11:48:29.491Z,49.43
2023-11-08T11:50:56.504Z,49.68
2023-11-08T11:53:25.330Z,49.53
2023-11-08T11:56:17.733Z,49.66
2023-11-08T11:58:44.882Z,49.59
2023-11-08T12:01:11.905Z,49.74
2023-11-08T12:03:39.169Z,49.95
2023-11-08T12:06:06.192Z,50.27
2023-11-08T12:08:34.300Z,50.31
2023-11-08T12:13:58.688Z,50.29
2023-11-08T12:16:26.041Z,50.78
2023-11-08T12:18:53.365Z,50.71
2023-11-08T12:21:20.408Z,50.32
2023-11-08T12:23:48.440Z,50.52
2023-11-08T12:26:15.247Z,50.95
2023-11-08T12:28:45.020Z,50.93
2023-11-08T12:31:12.598Z,50.80
2023-11-08T12:33:40.068Z,50.99
2023-11-08T12:36:07.441Z,50.81
2023-11-08T12:38:35.264Z,50.43
2023-11-08T12:41:06.186Z,50.57
2023-11-08T12:43:58.466Z,50.34
2023-11-08T12:46:37.356Z,50.42
2023-11-08T12:49:07.395Z,50.44
2023-11-08T12:51:34.339Z,50.59
2023-11-08T12:54:03.060Z,50.68
2023-11-08T12:56:40.516Z,50.56
2023-11-08T12:59:20.837Z,50.53
2023-11-08T13:01:52.174Z,50.07
2023-11-08T13:04:20.610Z,50.63
2023-11-08T13:06:48.788Z,49.82
2023-11-08T13:09:16.336Z,49.56
2023-11-08T13:11:43.209Z,48.92
2023-11-08T13:14:10.380Z,49.37
2023-11-08T13:16:37.417Z,49.60
2023-11-08T13:19:05.056Z,49.38
2023-11-08T13:21:32.114Z,49.18
2023-11-08T13:24:04.952Z,49.08
2023-11-08T13:26:35.385Z,49.53
2023-11-08T13:29:03.624Z,49.04
2023-11-08T13:31:30.802Z,49.64
2023-11-08T13:33:58.103Z,49.26
2023-11-08T13:36:28.865Z,49.49
2023-11-08T13:38:57.805Z,49.73
2023-11-08T13:41:25.157Z,50.12
2023-11-08T13:43:52.566Z,49.75
2023-11-08T13:46:19.660Z,49.90
2023-11-08T13:48:47.609Z,50.14
2023-11-08T13:51:15.222Z,49.92
2023-11-08T13:53:42.637Z,49.93
2023-11-08T13:56:09.492Z,49.92
2023-11-08T13:58:37.455Z,49.58
2023-11-08T14:01:10.042Z,49.59
2023-11-08T14:03:38.710Z,49.84
2023-11-08T14:06:07.654Z,50.25
2023-11-08T14:08:35.487Z,49.98
2023-11-08T14:11:02.388Z,49.72
2023-11-08T14:13:29.594Z,49.66
2023-11-08T14:15:56.684Z,50.14
2023-11-08T14:18:23.935Z,49.77
2023-11-08T14:20:50.869Z,49.84
2023-11-08T14:23:18.137Z,49.86
2023-11-08T14:25:45.034Z,49.73
2023-11-08T14:28:14.844Z,49.44
2023-11-08T14:30:41.787Z,49.21
2023-11-08T14:33:09.155Z,49.77
2023-11-08T14:41:05.420Z,49.77
2023-11-08T14:43:34.915Z,49.52
2023-11-08T14:46:01.811Z,49.72
2023-11-08T14:48:29.138Z,49.47
2023-11-08T14:50:56.076Z,49.85
2023-11-08T14:53:23.331Z,49.46
2023-11-08T14:55:50.301Z,49.65
2023-11-08T14:58:17.551Z,49.91
2023-11-08T15:00:45.840Z,49.58
2023-11-08T15:03:13.425Z,49.64
2023-11-08T15:05:40.461Z,49.83
2023-11-08T15:09:48.590Z,49.80
2023-11-08T15:10:54.902Z,49.89
2023-11-08T15:13:22.551Z,49.85
2023-11-08T15:15:49.521Z,49.66
2023-11-08T15:18:17.923Z,49.59
2023-11-08T15:20:44.819Z,49.67
2023-11-08T15:23:12.005Z,49.59
2023-11-08T15:25:40.960Z,48.95
2023-11-08T15:28:10.493Z,49.37
2023-11-08T15:30:37.430Z,49.87
2023-11-08T15:33:05.981Z,50.03
2023-11-08T15:35:33.003Z,49.83
2023-11-08T15:38:00.235Z,49.90
2023-11-08T15:40:27.163Z,50.92
2023-11-08T15:42:54.570Z,49.83
2023-11-08T15:45:21.492Z,49.29
2023-11-08T15:47:48.800Z,49.89
2023-11-08T15:50:15.791Z,49.64
2023-11-08T15:52:43.035Z,49.22
2023-11-08T15:55:10.224Z,49.02
2023-11-08T15:57:37.561Z,48.90
2023-11-08T16:00:08.459Z,49.56
2023-11-08T16:02:35.844Z,49.50
2023-11-08T16:05:04.884Z,49.16
2023-11-08T16:07:32.215Z,49.74
2023-11-08T16:09:59.655Z,49.24
2023-11-08T16:12:26.979Z,49.36
2023-11-08T16:14:53.895Z,49.28
2023-11-08T16:17:22.820Z,49.08
2023-11-08T16:19:50.230Z,49.43
2023-11-08T16:22:17.726Z,49.53
2023-11-08T16:24:44.821Z,49.43
2023-11-08T16:27:12.046Z,49.54
2023-11-08T16:29:51.598Z,49.39
2023-11-08T16:32:35.718Z,49.65
2023-11-08T16:35:09.962Z,49.38
2023-11-08T16:37:39.966Z,49.14
2023-11-08T16:40:11.029Z,49.61
2023-11-08T16:42:38.566Z,49.44
2023-11-08T16:45:07.181Z,49.80
2023-11-08T16:47:34.811Z,49.48
2023-11-08T16:50:01.733Z,49.34
2023-11-08T16:52:29.071Z,48.80
2023-11-08T16:54:57.181Z,48.33
2023-11-08T16:57:24.440Z,48.46
2023-11-08T16:59:51.391Z,49.93
2023-11-08T17:02:18.573Z,49.90
2023-11-08T17:04:45.618Z,49.25
2023-11-08T17:07:13.449Z,49.45
2023-11-08T17:09:40.497Z,49.55
2023-11-08T17:12:08.285Z,49.63
2023-11-08T17:14:35.562Z,49.39
2023-11-08T17:17:02.828Z,49.79
2023-11-08T17:19:29.849Z,49.74
2023-11-08T17:21:57.214Z,49.82
2023-11-08T17:24:24.120Z,49.70
2023-11-08T17:26:51.428Z,49.71
2023-11-08T17:29:18.255Z,49.79
2023-11-08T17:31:47.982Z,49.12
2023-11-08T17:34:15.136Z,49.18
2023-11-08T17:36:43.169Z,49.59
2023-11-08T17:39:10.101Z,49.50
2023-11-08T17:41:38.063Z,49.42
2023-11-08T17:44:04.933Z,49.46
2023-11-08T17:46:33.011Z,49.44
2023-11-08T17:49:00.035Z,49.49
2023-11-08T17:51:28.068Z,49.16
2023-11-08T17:53:54.907Z,49.52
2023-11-08T17:56:22.150Z,49.21
2023-11-08T17:58:48.975Z,49.00
2023-11-08T18:01:17.851Z,49.08
2023-11-08T18:03:46.389Z,48.83
2023-11-08T18:06:17.217Z,49.11
2023-11-08T18:08:44.891Z,49.03
2023-11-08T18:11:12.037Z,49.09
2023-11-08T18:13:39.429Z,49.28
2023-11-08T18:16:07.461Z,49.15
2023-11-08T18:18:34.422Z,48.90
2023-11-08T18:21:01.639Z,49.20
2023-11-08T18:23:28.957Z,48.94
2023-11-08T18:25:56.274Z,49.23
2023-11-08T18:28:23.201Z,48.85
2023-11-08T18:30:50.477Z,49.02
2023-11-08T18:33:19.778Z,49.25
2023-11-08T18:35:47.645Z,49.31
2023-11-08T18:38:14.603Z,49.42
2023-11-08T18:40:41.776Z,49.52
2023-11-08T18:43:08.721Z,49.50
2023-11-08T18:45:36.374Z,49.56
2023-11-08T18:48:03.937Z,49.75
2023-11-08T18:50:31.209Z,49.65
2023-11-08T18:52:58.163Z,49.58
2023-11-08T18:55:26.532Z,49.66
2023-11-08T18:57:53.639Z,49.57
2023-11-08T19:00:24.285Z,49.62
2023-11-08T19:02:52.936Z,49.93
2023-11-08T19:05:23.256Z,49.73
2023-11-08T19:07:53.355Z,49.69
2023-11-08T19:10:20.714Z,49.12
2023-11-08T19:12:47.830Z,49.76
2023-11-08T19:15:15.835Z,49.77
2023-11-08T19:17:42.951Z,49.75
2023-11-08T19:20:11.290Z,49.81
2023-11-08T19:22:38.518Z,49.95
2023-11-08T19:25:06.398Z,49.84
2023-11-08T19:27:34.023Z,49.87
2023-11-08T19:30:01.341Z,49.79
2023-11-08T19:32:28.423Z,49.97
2023-11-08T19:34:55.633Z,49.76
2023-11-08T19:37:22.575Z,49.85
2023-11-08T19:39:49.737Z,49.85
2023-11-08T19:42:17.719Z,49.84
2023-11-08T19:44:44.916Z,49.96
2023-11-08T19:47:11.745Z,50.06
2023-11-08T19:49:38.955Z,50.19
2023-11-08T19:52:07.898Z,49.85
2023-11-08T19:54:35.188Z,50.11
2023-11-08T19:57:02.044Z,50.11
2023-11-08T19:59:29.325Z,50.08
2023-11-08T20:01:56.287Z,50.07
2023-11-08T20:04:23.967Z,50.17
2023-11-08T20:06:50.923Z,50.07
2023-11-08T20:09:19.576Z,50.06
2023-11-08T20:11:46.455Z,50.18
2023-11-08T20:14:13.645Z,50.11
2023-11-08T20:16:43.845Z,50.25
2023-11-08T20:19:11.210Z,50.19
2023-11-08T20:21:38.080Z,49.93
2023-11-08T20:24:05.458Z,50.15
2023-11-08T20:26:32.317Z,50.45
2023-11-08T20:28:59.754Z,50.08
2023-11-08T20:31:26.607Z,50.12
2023-11-08T20:33:56.607Z,50.20
2023-11-08T20:36:24.786Z,50.31
2023-11-08T20:38:52.064Z,50.17
2023-11-08T20:41:18.914Z,50.43
2023-11-08T20:43:49.000Z,50.12
2023-11-08T20:46:17.988Z,50.34
2023-11-08T20:48:46.285Z,50.17
2023-11-08T20:51:13.224Z,50.01
2023-11-08T20:53:42.070Z,50.42
2023-11-08T20:56:12.072Z,50.34
2023-11-08T20:58:39.893Z,50.34
2023-11-08T21:01:07.277Z,50.14
2023-11-08T21:03:34.499Z,50.24
2023-11-08T21:06:02.171Z,50.04
2023-11-08T21:08:28.966Z,50.49
2023-11-08T21:10:56.349Z,50.27
2023-11-08T21:13:23.344Z,50.35
2023-11-08T21:15:50.635Z,50.28
2023-11-08T21:18:20.072Z,50.40
2023-11-08T21:20:48.981Z,50.12
2023-11-08T21:23:15.890Z,50.38
2023-11-08T21:25:43.174Z,50.26
2023-11-08T21:28:10.005Z,50.36
2023-11-08T21:30:38.016Z,50.51
2023-11-08T21:33:05.537Z,50.34
2023-11-08T21:35:33.147Z,50.41
2023-11-08T21:38:00.144Z,50.32
2023-11-08T21:40:27.343Z,50.34
2023-11-08T21:42:55.587Z,50.54
2023-11-08T21:45:22.974Z,50.43
2023-11-08T21:47:49.832Z,50.53
2023-11-08T21:50:17.213Z,50.49
2023-11-08T21:52:44.027Z,50.34
2023-11-08T21:55:14.455Z,50.44
2023-11-08T21:57:42.011Z,50.50
2023-11-08T22:00:11.231Z,50.23
2023-11-08T22:02:39.037Z,50.57
2023-11-08T22:05:07.294Z,50.46
2023-11-08T22:07:34.193Z,50.54
2023-11-08T22:10:01.411Z,50.70
2023-11-08T22:12:28.337Z,50.67
2023-11-08T22:14:55.567Z,50.97
2023-11-08T22:17:22.380Z,50.84
2023-11-08T22:19:49.682Z,50.89
2023-11-08T22:22:17.170Z,50.78
2023-11-08T22:24:44.411Z,50.84
2023-11-08T22:27:11.277Z,50.72
2023-11-08T22:29:38.435Z,50.82
2023-11-08T22:32:05.714Z,50.71
2023-11-08T22:34:32.905Z,50.92
2023-11-08T22:36:59.699Z,50.90
2023-11-08T22:39:27.236Z,50.72
2023-11-08T22:41:54.147Z,50.79
2023-11-08T22:44:21.311Z,50.73
2023-11-08T22:46:48.122Z,50.80
2023-11-08T22:49:15.804Z,50.83
2023-11-08T22:51:42.824Z,50.98
2023-11-08T22:54:11.926Z,50.85
2023-11-08T22:56:38.818Z,50.89
2023-11-08T22:59:05.918Z,50.85
2023-11-08T23:01:34.172Z,50.76
2023-11-08T23:04:04.771Z,51.02
2023-11-08T23:06:32.175Z,50.89
2023-11-08T23:09:01.468Z,50.97
2023-11-08T23:11:31.233Z,50.83
2023-11-08T23:13:58.618Z,51.02
2023-11-08T23:16:25.634Z,51.11
2023-11-08T23:18:55.823Z,51.16
2023-11-08T23:21:22.843Z,51.23
2023-11-08T23:23:50.551Z,50.95
2023-11-08T23:26:17.430Z,51.10
2023-11-08T23:28:44.569Z,51.00
2023-11-08T23:31:12.039Z,50.96
2023-11-08T23:33:39.274Z,51.36
2023-11-08T23:36:06.495Z,51.30
2023-11-08T23:38:33.601Z,51.44
2023-11-08T23:41:01.274Z,51.14
2023-11-08T23:43:28.647Z,51.26
2023-11-08T23:45:55.664Z,51.29
2023-11-08T23:48:22.958Z,51.34
2023-11-08T23:50:49.823Z,51.14
2023-11-08T23:53:17.158Z,51.36
2023-11-08T23:55:44.110Z,51.24
2023-11-08T23:58:11.827Z,51.22
